Flugplatz Buchel Airport

Bericht für ETSB

vom 14.12. um 00:20 UTC

Wind 15 kt aus 220°

Sichtweite 10 km oder mehr

Temperatur 2.0°C

Taupunkt 1.0°C

Luftfeuchtigkeit 93%

Luftdruck 987 hPa

ETSB 140020Z AUTO 22015KT 9999 // ////// 02/01 Q0987 ///
Keine Prognose (TAF) verfügbar.
Impressum